Time;durP1;ratioP1;P1;durP2;ratioP2;P2;SDS_P1;SDS_P2;PMS_P1;PMS_P2;Temp;Humidity;BMP_temperature;BMP_pressure;BME280_temperature;BME280_humidity;BME280_pressure;Samples;Min_cycle;Max_cycle;Signal;HPM_P1;HPM_P2
2023/02/10 00:02:54;;;;;;;19.40;14.40;;;;;;;-3.72;69.67;100985.35;447846;1251;129331;-63
2023/02/10 00:13:00;;;;;;;17.00;13.50;;;;;;;-3.92;69.99;100977.29;436345;1251;142673;-62
2023/02/10 00:23:07;;;;;;;21.80;13.50;;;;;;;-4.10;70.43;100964.49;436718;1251;143864;-62
2023/02/10 00:33:13;;;;;;;19.90;13.40;;;;;;;-4.20;70.83;100955.58;439630;1250;141408;-61
2023/02/10 00:43:19;;;;;;;18.60;13.10;;;;;;;-4.30;71.11;100959.16;437791;1251;143633;-63
2023/02/10 00:53:25;;;;;;;19.80;12.80;;;;;;;-4.41;71.40;100948.86;434875;1251;141983;-61
2023/02/10 01:03:31;;;;;;;20.20;13.20;;;;;;;-4.49;71.74;100945.63;433804;1251;142024;-62
2023/02/10 01:13:39;;;;;;;22.40;14.70;;;;;;;-4.51;72.03;100938.08;436711;1251;142250;-62
2023/02/10 01:23:45;;;;;;;21.00;13.20;;;;;;;-4.53;72.23;100942.84;441183;1250;141992;-62
2023/02/10 01:33:53;;;;;;;21.40;13.60;;;;;;;-4.61;72.43;100929.15;434362;1249;142395;-61
2023/02/10 01:44:02;;;;;;;24.50;15.30;;;;;;;-4.65;72.68;100919.35;435778;1254;142112;-62
2023/02/10 01:54:13;;;;;;;22.60;15.50;;;;;;;-4.74;72.96;100910.46;435911;1251;141539;-62
2023/02/10 02:04:19;;;;;;;22.30;15.40;;;;;;;-4.80;73.37;100899.57;440945;1250;142372;-62
2023/02/10 02:14:37;;;;;;;23.00;15.60;;;;;;;-4.83;73.51;100880.71;435184;1250;142364;-61
2023/02/10 02:25:16;;;;;;;22.80;15.60;;;;;;;-4.92;73.71;100874.40;440353;1250;142022;-62
2023/02/10 02:35:27;;;;;;;21.50;15.10;;;;;;;-4.95;73.95;100873.48;433592;1250;145628;-61
2023/02/10 02:45:41;;;;;;;23.10;14.80;;;;;;;-5.00;73.98;100886.53;435114;1250;142650;-62
2023/02/10 02:56:00;;;;;;;19.40;13.90;;;;;;;-5.06;74.06;100902.12;437865;1250;142104;-62
2023/02/10 03:06:06;;;;;;;23.60;14.50;;;;;;;-5.15;74.25;100908.93;438135;1250;143808;-62
2023/02/10 03:16:12;;;;;;;24.00;14.70;;;;;;;-5.22;74.61;100917.64;434633;1253;141988;-61
2023/02/10 03:26:18;;;;;;;22.40;14.40;;;;;;;-5.27;74.59;100929.15;435132;1250;142739;-61
2023/02/10 03:36:24;;;;;;;21.00;15.20;;;;;;;-5.29;74.80;100924.17;444708;1250;142776;-61
2023/02/10 03:46:31;;;;;;;22.90;15.40;;;;;;;-5.34;74.84;100917.39;435143;1250;208997;-62
2023/02/10 03:56:37;;;;;;;23.30;16.20;;;;;;;-5.42;75.10;100913.63;440648;1250;144370;-62
2023/02/10 04:06:42;;;;;;;23.50;15.60;;;;;;;-5.41;75.28;100918.94;437985;1251;142397;-62
2023/02/10 04:16:48;;;;;;;22.80;14.20;;;;;;;-5.46;75.29;100924.63;436477;1250;142315;-63
2023/02/10 04:26:54;;;;;;;23.30;14.50;;;;;;;-5.57;75.49;100913.27;442002;1250;142315;-61
2023/02/10 04:37:00;;;;;;;21.30;14.20;;;;;;;-5.62;75.64;100920.33;439797;1250;142750;-61
2023/02/10 04:47:06;;;;;;;20.50;14.60;;;;;;;-5.67;75.70;100927.55;436526;1250;141801;-63
2023/02/10 04:57:12;;;;;;;22.00;14.60;;;;;;;-5.71;76.07;100924.23;441592;1250;143143;-62
2023/02/10 05:07:18;;;;;;;25.20;15.20;;;;;;;-5.73;75.99;100928.26;436911;1250;142610;-62
2023/02/10 05:17:24;;;;;;;22.30;15.60;;;;;;;-5.55;76.30;100920.83;434142;1250;145382;-62
2023/02/10 05:27:30;;;;;;;24.60;16.00;;;;;;;-5.45;76.15;100909.64;438249;1250;141991;-62
2023/02/10 05:37:37;;;;;;;23.60;15.60;;;;;;;-5.25;76.35;100929.02;435459;1250;210361;-62
2023/02/10 05:47:43;;;;;;;23.00;14.70;;;;;;;-4.87;76.39;100930.34;433642;1253;141956;-62
2023/02/10 05:57:50;;;;;;;25.80;15.40;;;;;;;-4.55;76.02;100941.07;440155;1250;143811;-60
2023/02/10 06:07:56;;;;;;;25.00;14.00;;;;;;;-4.27;75.81;100944.00;445673;1250;142709;-63
2023/02/10 06:18:02;;;;;;;21.80;15.60;;;;;;;-4.04;75.68;100947.84;450103;1250;142312;-62
2023/02/10 06:28:06;;;;;;;;;;;;;;;-3.80;75.53;100953.04;449821;1250;142266;-63
2023/02/10 06:38:12;;;;;;;20.90;14.00;;;;;;;-3.57;75.23;100958.20;450730;1250;129523;-62
2023/02/10 06:48:16;;;;;;;;;;;;;;;-3.35;75.16;100966.77;450725;1250;142363;-62
2023/02/10 06:58:22;;;;;;;20.70;12.80;;;;;;;-3.11;75.00;100972.08;450286;1250;128871;-63
2023/02/10 07:08:28;;;;;;;21.00;14.20;;;;;;;-2.91;75.10;100976.48;450854;1250;142904;-63
2023/02/10 07:18:34;;;;;;;18.20;13.60;;;;;;;-2.75;75.29;100989.72;448644;1249;142203;-62
2023/02/10 07:28:39;;;;;;;;;;;;;;;-2.56;75.24;100985.66;450760;1250;143139;-62
2023/02/10 07:38:45;;;;;;;22.40;15.70;;;;;;;-2.22;75.01;100978.34;450997;1250;128898;-63
2023/02/10 07:48:51;;;;;;;22.90;13.40;;;;;;;-1.92;74.56;100987.58;450155;1250;143576;-62
2023/02/10 07:58:58;;;;;;;21.70;14.50;;;;;;;-1.85;74.37;100986.10;450895;1250;142307;-63
2023/02/10 08:09:05;;;;;;;23.10;15.20;;;;;;;-1.64;74.14;100991.95;450660;1250;142100;-63
2023/02/10 08:19:11;;;;;;;24.10;15.90;;;;;;;-1.23;74.24;100994.69;449948;1250;142387;-63
2023/02/10 08:29:17;;;;;;;26.30;15.10;;;;;;;-0.80;73.77;101001.66;450735;1250;141810;-63
2023/02/10 08:39:23;;;;;;;25.20;15.60;;;;;;;-0.36;73.25;101007.02;450310;1250;142185;-63
2023/02/10 08:49:29;;;;;;;23.30;16.20;;;;;;;-0.24;73.06;101002.61;449567;1251;142195;-63
2023/02/10 08:59:36;;;;;;;24.50;15.60;;;;;;;-0.18;73.61;101013.98;450317;1251;142214;-61
2023/02/10 09:09:43;;;;;;;24.70;15.80;;;;;;;0.40;73.72;101011.50;449638;1250;141855;-62
2023/02/10 09:19:49;;;;;;;25.00;16.50;;;;;;;0.94;73.41;101003.04;446634;1251;141404;-62
2023/02/10 09:29:56;;;;;;;21.00;15.40;;;;;;;1.28;72.76;101001.60;450337;1251;141924;-63
2023/02/10 09:40:02;;;;;;;24.50;15.50;;;;;;;1.11;72.65;101014.41;449564;1252;142445;-62
2023/02/10 09:50:33;;;;;;;25.30;16.40;;;;;;;1.04;72.87;101023.38;450169;1250;161566;-63
2023/02/10 10:00:43;;;;;;;24.80;16.50;;;;;;;0.83;73.01;101018.76;449569;1253;142998;-62
2023/02/10 10:10:50;;;;;;;25.30;17.10;;;;;;;0.79;73.12;101019.45;450445;1250;141906;-63
2023/02/10 10:20:57;;;;;;;;;;;;;;;0.85;73.11;101011.16;438439;1254;141637;-63
2023/02/10 10:31:09;;;;;;;25.80;15.70;;;;;;;0.93;73.35;101012.19;444719;1250;130689;-63
2023/02/10 10:41:17;;;;;;;23.20;16.10;;;;;;;1.00;73.46;101009.42;450871;1250;141405;-62
2023/02/10 10:51:23;;;;;;;25.30;17.40;;;;;;;0.86;73.18;101024.61;451046;1251;141897;-63
2023/02/10 11:01:38;;;;;;;23.40;14.40;;;;;;;0.86;73.49;101025.83;450310;1250;141322;-63
2023/02/10 11:11:45;;;;;;;20.80;14.40;;;;;;;1.09;73.56;101025.63;451125;1250;141984;-63
2023/02/10 11:21:51;;;;;;;23.80;15.40;;;;;;;1.36;73.48;101032.80;444925;1250;142535;-63
2023/02/10 11:31:58;;;;;;;22.00;14.80;;;;;;;1.47;73.25;101048.83;451052;1249;141933;-62
2023/02/10 11:42:12;;;;;;;22.40;14.20;;;;;;;1.65;73.66;101022.69;451145;1250;142434;-62
2023/02/10 11:52:21;;;;;;;18.80;12.00;;;;;;;1.81;73.09;101015.38;450219;1250;143438;-62
2023/02/10 12:02:40;;;;;;;18.90;11.90;;;;;;;1.85;72.95;101025.90;451083;1250;142352;-62
2023/02/10 12:12:54;;;;;;;20.10;12.70;;;;;;;2.01;72.92;101025.46;450319;1250;143334;-63
2023/02/10 12:23:22;;;;;;;17.30;11.80;;;;;;;1.99;72.55;101034.47;451062;1249;141871;-62
2023/02/10 12:33:44;;;;;;;20.40;12.50;;;;;;;1.93;72.62;101028.27;451040;1250;141265;-63
2023/02/10 12:44:08;;;;;;;20.40;13.10;;;;;;;1.85;72.95;101037.98;450611;1250;140811;-63
2023/02/10 12:54:19;;;;;;;20.10;14.00;;;;;;;1.75;72.93;101038.36;451010;1250;141903;-62
2023/02/10 13:04:30;;;;;;;27.40;16.50;;;;;;;1.72;73.54;101044.08;450213;1250;141118;-62
2023/02/10 13:14:38;;;;;;;32.70;19.40;;;;;;;1.76;73.71;101048.55;451009;1251;141401;-63
2023/02/10 13:24:51;;;;;;;33.90;19.10;;;;;;;1.65;73.69;101063.45;434534;1254;141002;-62
2023/02/10 13:35:00;;;;;;;38.00;20.70;;;;;;;1.42;73.92;101065.05;435356;1251;142616;-62
2023/02/10 13:45:16;;;;;;;32.70;20.20;;;;;;;1.01;74.41;101068.05;450997;1251;141326;-62
2023/02/10 13:55:38;;;;;;;39.10;23.50;;;;;;;0.79;75.05;101064.96;450249;1251;142710;-63
2023/02/10 14:05:56;;;;;;;37.40;20.20;;;;;;;0.77;75.69;101059.11;450964;1250;140917;-62
2023/02/10 14:16:05;;;;;;;37.20;22.60;;;;;;;0.87;76.07;101053.75;449023;1251;142238;-61
2023/02/10 14:26:20;;;;;;;38.00;21.90;;;;;;;0.82;76.22;101057.89;450983;1253;142001;-63
2023/02/10 14:36:27;;;;;;;32.70;21.30;;;;;;;0.66;76.63;101055.98;450818;1250;142061;-64
2023/02/10 14:46:35;;;;;;;36.10;22.80;;;;;;;0.65;77.01;101062.36;450333;1253;210142;-62
2023/02/10 14:56:49;;;;;;;39.20;23.70;;;;;;;0.65;77.22;101064.95;450980;1250;141945;-62
2023/02/10 15:06:58;;;;;;;32.60;21.40;;;;;;;0.60;77.53;101050.30;449585;1253;141582;-62
2023/02/10 15:17:08;;;;;;;39.20;21.50;;;;;;;0.50;77.85;101066.84;450839;1250;144041;-63
2023/02/10 15:27:19;;;;;;;35.30;22.00;;;;;;;0.38;78.34;101074.23;448958;1251;141807;-61
2023/02/10 15:37:28;;;;;;;34.00;22.60;;;;;;;0.32;78.68;101079.55;441089;1250;142551;-61
2023/02/10 15:47:47;;;;;;;34.60;21.50;;;;;;;0.24;79.18;101090.38;444311;1250;142771;-61
2023/02/10 15:57:55;;;;;;;30.60;20.60;;;;;;;0.18;79.76;101105.52;444207;1249;142448;-62
2023/02/10 16:08:05;;;;;;;41.20;22.70;;;;;;;0.17;80.24;101100.52;444849;1251;144385;-66
2023/02/10 16:18:15;;;;;;;41.00;26.30;;;;;;;0.12;80.69;101099.30;450991;1251;141782;-67
2023/02/10 16:28:21;;;;;;;37.80;22.50;;;;;;;0.08;81.36;101104.45;437779;1253;142330;-66
2023/02/10 16:38:27;;;;;;;36.90;20.40;;;;;;;0.07;81.78;101106.00;450654;1250;141356;-67
2023/02/10 16:48:33;;;;;;;35.30;24.40;;;;;;;0.07;82.36;101115.13;449888;1249;143305;-67
2023/02/10 16:58:39;;;;;;;33.90;20.80;;;;;;;0.03;83.06;101118.89;450631;1251;142303;-67
2023/02/10 17:08:45;;;;;;;33.90;19.50;;;;;;;0.02;83.57;101120.63;443407;1251;142649;-66
2023/02/10 17:18:52;;;;;;;32.70;20.20;;;;;;;-0.00;84.31;101120.60;443950;1249;142832;-67
2023/02/10 17:28:58;;;;;;;38.20;18.70;;;;;;;0.02;84.96;101120.80;450868;1251;142190;-67
2023/02/10 17:49:29;;;;;;;36.50;24.50;;;;;;;-0.02;86.26;101129.55;450119;1249;142377;-67
2023/02/10 17:59:35;;;;;;;35.10;24.10;;;;;;;0.01;87.02;101133.17;444998;1249;142262;-66
2023/02/10 18:09:41;;;;;;;41.10;23.80;;;;;;;0.00;87.93;101129.05;449187;1249;141824;-66
2023/02/10 18:19:47;;;;;;;38.90;22.20;;;;;;;-0.01;88.39;101144.88;450955;1249;141889;-66
2023/02/10 18:29:53;;;;;;;41.80;22.70;;;;;;;-0.03;89.15;101142.64;450759;1250;143032;-67
2023/02/10 18:39:59;;;;;;;40.40;23.20;;;;;;;-0.03;89.98;101124.73;436809;1250;143304;-67
2023/02/10 18:50:05;;;;;;;36.80;23.60;;;;;;;-0.08;90.56;101108.69;441832;1250;141939;-68
2023/02/10 19:00:11;;;;;;;;;;;;;;;-0.15;91.45;101110.05;451003;1249;141792;-66
2023/02/10 19:10:17;;;;;;;41.90;24.40;;;;;;;-0.17;92.44;101108.83;450529;1249;128700;-67
2023/02/10 19:20:23;;;;;;;38.00;24.20;;;;;;;-0.22;93.34;101096.76;451045;1249;142615;-68
2023/02/10 19:30:29;;;;;;;39.40;23.10;;;;;;;-0.21;93.95;101094.35;437567;1250;142081;-67
2023/02/10 19:40:36;;;;;;;37.80;20.90;;;;;;;-0.22;94.16;101086.25;440853;1250;212880;-67
2023/02/10 19:50:42;;;;;;;37.30;21.30;;;;;;;-0.26;94.52;101076.08;451105;1249;141779;-67
2023/02/10 20:00:48;;;;;;;47.70;26.40;;;;;;;-0.28;94.36;101065.73;450153;1249;143086;-66
2023/02/10 20:10:55;;;;;;;36.70;22.40;;;;;;;-0.32;94.57;101063.84;451044;1250;141585;-67
2023/02/10 20:21:02;;;;;;;36.10;20.40;;;;;;;-0.28;94.59;101073.15;450907;1250;142218;-67
2023/02/10 20:31:13;;;;;;;37.50;23.20;;;;;;;-0.24;94.58;101080.21;434198;1250;143633;-67
2023/02/10 20:41:22;;;;;;;32.30;21.80;;;;;;;-0.22;94.54;101066.83;446374;1249;141938;-67
2023/02/10 20:51:28;;;;;;;33.00;21.20;;;;;;;-0.22;94.43;101059.58;450847;1249;142961;-66
2023/02/10 21:01:34;;;;;;;34.70;20.60;;;;;;;-0.25;94.59;101038.73;450474;1250;199023;-67
2023/02/10 21:11:40;;;;;;;37.70;22.30;;;;;;;-0.22;94.57;101041.68;450985;1249;142048;-68
2023/02/10 21:21:46;;;;;;;38.80;22.40;;;;;;;-0.20;94.60;101031.88;450254;1250;142731;-68
2023/02/10 21:31:52;;;;;;;35.10;22.10;;;;;;;-0.17;94.49;101020.02;450955;1249;141496;-68
2023/02/10 21:41:58;;;;;;;28.20;17.40;;;;;;;-0.18;94.43;101015.70;443839;1250;142992;-67
2023/02/10 21:52:05;;;;;;;28.20;16.90;;;;;;;-0.17;94.42;101024.83;435629;1251;142108;-68
2023/02/10 22:02:15;;;;;;;31.60;19.10;;;;;;;-0.18;94.19;101023.27;451018;1249;142160;-68
2023/02/10 22:12:23;;;;;;;31.60;15.90;;;;;;;-0.15;94.31;101007.63;451138;1250;143535;-69
2023/02/10 22:22:30;;;;;;;28.80;18.70;;;;;;;-0.12;94.18;100985.59;450339;1249;142199;-68
2023/02/10 22:32:34;;;;;;;;;;;;;;;-0.10;93.89;100979.74;450979;1250;141467;-67
2023/02/10 22:42:41;;;;;;;31.20;15.40;;;;;;;-0.08;93.79;100980.10;442795;1250;127560;-67
2023/02/10 22:52:47;;;;;;;22.80;13.20;;;;;;;-0.07;93.56;100967.87;450426;1250;141735;-68
2023/02/10 23:02:53;;;;;;;24.30;14.50;;;;;;;-0.07;93.26;100956.16;450468;1250;142082;-66
2023/02/10 23:12:58;;;;;;;;;;;;;;;-0.03;93.18;100939.83;449868;1250;141729;-68
2023/02/10 23:23:04;;;;;;;27.20;16.60;;;;;;;0.00;92.93;100924.85;450837;1250;128378;-67
2023/02/10 23:33:10;;;;;;;22.50;13.60;;;;;;;0.02;92.82;100894.54;447671;1250;142492;-66
2023/02/10 23:43:16;;;;;;;19.20;12.30;;;;;;;0.01;92.51;100867.16;439221;1250;141810;-67
2023/02/10 23:53:22;;;;;;;20.10;13.20;;;;;;;-0.01;92.31;100845.13;450641;1250;141704;-67
